Time;durP1;ratioP1;P1;durP2;ratioP2;P2;SDS_P1;SDS_P2;PMS_P1;PMS_P2;Temp;Humidity;BMP_temperature;BMP_pressure;BME280_temperature;BME280_humidity;BME280_pressure;Samples;Min_cycle;Max_cycle;Signal;HPM_P1;HPM_P2
2021/04/14 00:00:36;;;;;;;;;;;;;;;11.77;42.56;100231.38;5262349;27;32984;-87
2021/04/14 00:03:32;;;;;;;;;;;;;;;12.21;41.41;100218.81;5278927;27;35251;-87
2021/04/14 00:06:40;;;;;;;;;;;;;;;11.98;41.92;100220.34;5278082;27;34479;-87
2021/04/14 00:09:40;;;;;;;;;;;;;;;11.81;42.27;100218.19;5278826;27;33876;-87
2021/04/14 00:12:46;;;;;;;;;;;;;;;12.54;40.71;100218.69;5279996;27;35214;-88
2021/04/14 00:15:29;;;;;;;;;;;;;;;11.62;42.48;100222.19;5281929;27;34640;-87
2021/04/14 00:18:37;;;;;;;;;;;;;;;11.12;43.74;100215.69;5288251;27;34371;-86
2021/04/14 00:21:22;;;;;;;;;;;;;;;11.40;43.18;100214.97;5287560;27;36190;-88
2021/04/14 00:24:15;;;;;;;;;;;;;;;11.65;42.50;100220.37;5287724;27;33224;-87
2021/04/14 00:27:09;;;;;;;;;;;;;;;11.75;42.52;100217.50;5271139;27;33339;-87
2021/04/14 00:30:18;;;;;;;;;;;;;;;;;;;;;
2021/04/14 00:33:03;;;;;;;;;;;;;;;11.58;42.67;100228.41;5279710;27;32287;-88
2021/04/14 00:35:54;;;;;;;;;;;;;;;11.64;42.68;100221.25;5297901;27;34891;-88
2021/04/14 00:38:44;;;;;;;;;;;;;;;11.61;42.71;100228.34;5280367;27;33636;-88
2021/04/14 00:41:30;;;;;;;;;;;;;;;11.88;42.41;100231.91;5263899;27;34395;-87
2021/04/14 00:44:21;;;;;;;;;;;;;;;11.47;43.04;100241.75;5282269;27;32659;-87
2021/04/14 00:47:08;;;;;;;;;;;;;;;12.37;40.79;100234.88;5312006;27;35231;-86
2021/04/14 00:50:07;;;;;;;;;;;;;;;11.97;41.87;100236.91;5281868;27;33160;-88
2021/04/14 00:53:07;;;;;;;;;;;;;;;12.06;41.64;100238.41;5279560;27;32734;-87
2021/04/14 00:56:11;;;;;;;;;;;;;;;11.94;42.34;100229.16;5252660;27;32477;-87
2021/04/14 00:59:19;;;;;;;;;;;;;;;11.95;41.87;100230.03;5278851;27;34146;-88
2021/04/14 01:05:47;;;;;;;;;;;;;;;12.55;40.74;100232.59;5279025;27;33062;-89
2021/04/14 01:09:16;;;;;;;;;;;;;;;12.11;41.56;100231.31;5174319;27;34658;-87
2021/04/14 01:12:25;;;;;;;;;;;;;;;;;;;;;
2021/04/14 01:15:36;;;;;;;;;;;;;;;11.68;42.48;100235.09;5276700;27;34597;-87
2021/04/14 01:18:36;;;;;;;;;;;;;;;11.90;42.52;100230.13;5278605;27;32906;-89
2021/04/14 01:21:45;;;;;;;;;;;;;;;;;;;;;
2021/04/14 01:24:45;;;;;;;;;;;;;;;12.06;42.30;100221.88;5281707;27;35074;-87
2021/04/14 01:27:55;;;;;;;;;;;;;;;11.90;42.55;100218.81;5261014;27;33312;-88
2021/04/14 01:30:50;;;;;;;;;;;;;;;11.39;43.49;100225.44;5271187;27;35661;-89
2021/04/14 01:33:45;;;;;;;;;;;;;;;11.49;43.32;100216.47;5275033;27;32392;-87
2021/04/14 01:36:28;;;;;;;;;;;;;;;11.33;43.94;100224.72;5261323;27;33078;-88
2021/04/14 01:39:38;;;;;;;;;;;;;;;11.68;42.85;100215.06;5278525;27;33053;-88
2021/04/14 01:42:25;;;;;;;;;;;;;;;11.20;44.17;100215.50;5278151;27;34911;-86
2021/04/14 01:45:36;;;;;;;;;;;;;;;9.60;48.18;100218.19;5278225;27;32445;-87
2021/04/14 01:48:40;;;;;;;;;;;;;;;10.85;45.06;100227.69;5267787;27;32900;-87
2021/04/14 01:51:34;;;;;;;;;;;;;;;11.25;44.54;100228.41;5284247;27;33021;-86
2021/04/14 01:54:22;;;;;;;;;;;;;;;11.22;44.27;100226.75;5286502;27;34184;-89
2021/04/14 01:57:06;;;;;;;;;;;;;;;10.78;45.28;100215.66;5279437;27;33783;-87
2021/04/14 01:59:52;;;;;;;;;;;;;;;11.16;44.80;100224.28;5279651;27;33736;-88
2021/04/14 02:02:45;;;;;;;;;;;;;;;11.65;43.67;100214.31;5294221;27;33434;-87
2021/04/14 02:06:02;;;;;;;;;;;;;;;11.61;43.43;100216.13;5275879;27;34829;-89
2021/04/14 02:09:04;;;;;;;;;;;;;;;12.34;41.96;100212.31;5274047;27;35696;-88
2021/04/14 02:12:07;;;;;;;;;;;;;;;11.94;42.98;100207.38;5279458;27;33587;-89
2021/04/14 02:15:26;;;;;;;;;;;;;;;11.46;44.00;100208.72;5283945;27;33153;-89
2021/04/14 02:18:29;;;;;;;;;;;;;;;12.10;42.71;100211.31;5279103;27;32857;-88
2021/04/14 02:25:04;;;;;;;;;;;;;;;11.75;43.36;100210.50;5271221;27;37033;-87
2021/04/14 02:27:56;;;;;;;;;;;;;;;12.01;42.71;100207.19;5298136;27;33698;-88
2021/04/14 02:30:55;;;;;;;;;;;;;;;12.21;42.09;100200.53;5275233;27;33367;-89
2021/04/14 02:34:22;;;;;;;;;;;;;;;12.07;42.61;100202.69;5267639;27;32486;-87
2021/04/14 02:42:11;;;;;;;;;;;;;;;12.25;42.31;100202.13;5205216;27;36159;-88
2021/04/14 02:45:10;;;;;;;;;;;;;;;11.91;42.81;100213.53;5221374;27;33194;-87
2021/04/14 02:48:03;;;;;;;;;;;;;;;12.50;41.59;100198.78;5257245;27;33177;-89
2021/04/14 02:51:13;;;;;;;;;;;;;;;11.83;43.17;100199.84;5297953;26;36481;-89
2021/04/14 02:54:06;;;;;;;;;;;;;;;12.06;42.64;100206.19;5298040;27;34877;-87
2021/04/14 02:56:58;;;;;;;;;;;;;;;12.19;42.35;100197.09;5274723;27;33469;-87
2021/04/14 02:59:56;;;;;;;;;;;;;;;11.80;43.11;100198.19;5274480;27;32508;-87
2021/04/14 03:02:41;;;;;;;;;;;;;;;12.32;42.24;100206.25;5262728;27;34306;-89
2021/04/14 03:05:50;;;;;;;;;;;;;;;12.09;42.50;100203.50;5280652;27;33194;-88
2021/04/14 03:09:23;;;;;;;;;;;;;;;12.43;41.90;100205.09;5270034;27;33422;-88
2021/04/14 03:12:59;;;;;;;;;;;;;;;11.98;42.85;100203.84;5298034;27;33400;-87
2021/04/14 03:16:03;;;;;;;;;;;;;;;12.30;42.39;100207.25;5278788;27;34629;-89
2021/04/14 03:18:58;;;;;;;;;;;;;;;12.08;42.68;100205.25;5270106;27;34679;-88
2021/04/14 03:22:14;;;;;;;;;;;;;;;12.57;41.74;100213.34;5261130;27;33297;-90
2021/04/14 03:29:26;;;;;;;;;;;;;;;12.17;42.72;100218.03;5258306;27;34329;-88
2021/04/14 03:32:50;;;;;;;;;;;;;;;12.90;40.88;100223.63;5297203;27;34893;-88
2021/04/14 03:36:06;;;;;;;;;;;;;;;12.90;40.97;100218.41;5244432;27;34187;-88
2021/04/14 03:38:56;;;;;;;;;;;;;;;12.53;41.61;100215.19;5279037;27;33930;-88
2021/04/14 03:41:49;;;;;;;;;;;;;;;12.47;42.03;100215.41;5282857;27;34058;-88
2021/04/14 03:44:59;;;;;;;;;;;;;;;12.14;42.94;100215.53;5278798;27;34185;-87
2021/04/14 03:48:10;;;;;;;;;;;;;;;12.32;42.68;100219.31;5298230;27;35072;-87
2021/04/14 03:51:29;;;;;;;;;;;;;;;11.99;43.68;100211.62;5278776;27;32920;-88
2021/04/14 03:54:54;;;;;;;;;;;;;;;;;;;;;
2021/04/14 03:58:18;;;;;;;;;;;;;;;12.29;42.63;100229.88;5278570;27;33703;-88
2021/04/14 04:01:33;;;;;;;;;;;;;;;12.50;42.35;100222.31;5277604;27;34103;-87
2021/04/14 04:04:46;;;;;;;;;;;;;;;12.23;43.03;100227.47;5278635;27;33801;-88
2021/04/14 04:07:56;;;;;;;;;;;;;;;12.21;42.51;100233.66;5282952;27;35004;-87
2021/04/14 04:22:40;;;;;;;;;;;;;;;12.07;42.97;100227.03;5196484;27;35107;-89
2021/04/14 04:25:49;;;;;;;;;;;;;;;12.19;43.18;100245.00;5212333;27;33517;-87
2021/04/14 04:36:34;;;;;;;;;;;;;;;11.95;43.59;100256.12;5159727;27;35850;-87
2021/04/14 04:39:44;;;;;;;;;;;;;;;;;;;;;
2021/04/14 04:42:48;;;;;;;;;;;;;;;11.27;45.38;100260.53;5169761;27;33661;-88
2021/04/14 04:46:01;;;;;;;;;;;;;;;;;;;;;
2021/04/14 04:49:23;;;;;;;;;;;;;;;11.64;44.35;100265.62;5182209;27;34983;-88
2021/04/14 04:52:29;;;;;;;;;;;;;;;12.10;43.93;100273.12;5174151;27;33705;-89
2021/04/14 04:55:44;;;;;;;;;;;;;;;11.25;45.47;100277.97;5201209;27;34398;-88
2021/04/14 04:58:51;;;;;;;;;;;;;;;11.79;44.44;100277.44;5171647;27;31768;-89
2021/04/14 05:02:00;;;;;;;;;;;;;;;10.25;48.63;100292.38;5164530;27;32639;-88
2021/04/14 05:04:54;;;;;;;;;;;;;;;11.19;45.82;100286.81;5175727;27;33071;-86
2021/04/14 05:08:43;;;;;;;;;;;;;;;11.31;46.08;100296.06;5198583;27;34324;-87
2021/04/14 05:11:56;;;;;;;;;;;;;;;10.52;47.37;100290.09;5271733;27;32127;-87
2021/04/14 05:14:58;;;;;;;;;;;;;;;10.57;47.86;100300.41;5286609;27;33663;-87
2021/04/14 05:18:23;;;;;;;;;;;;;;;10.22;48.89;100297.63;5280753;27;32412;-89
2021/04/14 05:21:23;;;;;;;;;;;;;;;10.34;48.56;100313.03;5270273;27;33459;-89
2021/04/14 05:24:42;;;;;;;;;;;;;;;10.40;48.58;100313.78;5277262;27;33380;-89
2021/04/14 05:28:07;;;;;;;;;;;;;;;10.71;47.73;100305.31;5290795;27;33206;-89
2021/04/14 05:31:40;;;;;;;;;;;;;;;10.81;47.49;100304.19;5231857;27;35174;-85
2021/04/14 05:34:20;;;;;;;;;;;;;;;11.67;45.69;100294.28;5210785;27;32498;-85
2021/04/14 05:36:48;;;;;;;;;;;;;;;11.68;46.05;100298.56;5209706;27;33818;-86
2021/04/14 05:39:20;;;;;;;;;;;;;;;11.64;45.60;100296.94;5228397;27;34724;-85
2021/04/14 05:41:48;;;;;;;;;;;;;;;10.79;47.22;100300.78;5210138;27;34070;-85
2021/04/14 05:44:16;;;;;;;;;;;;;;;10.60;48.73;100296.00;5227885;27;34233;-85
2021/04/14 05:46:44;;;;;;;;;;;;;;;10.71;48.21;100300.12;5220049;27;33127;-85
2021/04/14 05:49:15;;;;;;;;;;;;;;;10.70;48.05;100301.84;5227977;27;35468;-85
2021/04/14 05:51:43;;;;;;;;;;;;;;;10.51;48.49;100299.66;5227837;27;35538;-86
2021/04/14 05:54:15;;;;;;;;;;;;;;;10.58;48.54;100295.16;5228167;27;34101;-86
2021/04/14 05:56:50;;;;;;;;;;;;;;;10.11;48.87;100287.44;5208430;27;33501;-84
2021/04/14 05:59:18;;;;;;;;;;;;;;;10.58;48.46;100292.56;5234219;27;33340;-87
2021/04/14 06:01:51;;;;;;;;;;;;;;;11.14;47.34;100296.47;5231424;27;34354;-87
2021/04/14 06:04:18;;;;;;;;;;;;;;;10.89;46.64;100299.69;5211424;27;34174;-86
2021/04/14 06:06:45;;;;;;;;;;;;;;;10.65;46.88;100295.88;5228164;27;33282;-85
2021/04/14 06:09:30;;;;;;;;;;;;;;;10.90;46.00;100292.72;5262920;27;32273;-86
2021/04/14 06:11:58;;;;;;;;;;;;;;;10.92;46.51;100285.72;5297435;27;34151;-85
2021/04/14 06:14:25;;;;;;;;;;;;;;;11.78;44.75;100295.72;5278199;27;33574;-85
2021/04/14 06:16:52;;;;;;;;;;;;;;;10.16;48.76;100302.97;5297560;27;33969;-86
2021/04/14 06:19:22;;;;;;;;;;;;;;;12.25;43.58;100298.81;5292605;27;33347;-85
2021/04/14 06:21:49;;;;;;;;;;;;;;;11.51;45.00;100309.47;5297439;27;34355;-86
2021/04/14 06:24:32;;;;;;;;;;;;;;;11.67;45.18;100303.84;4467626;32;924384;-85
2021/04/14 06:27:03;;;;;;;;;;;;;;;11.67;45.18;100303.84;4483149;32;33130;-84
2021/04/14 06:29:30;;;;;;;;;;;;;;;11.57;45.48;100305.84;4487915;32;32849;-84
2021/04/14 06:31:58;;;;;;;;;;;;;;;11.29;46.27;100316.13;4503570;31;33594;-83
2021/04/14 06:34:27;;;;;;;;;;;;;;;11.07;46.42;100307.97;4497159;32;33105;-86
2021/04/14 06:36:57;;;;;;;;;;;;;;;11.79;45.02;100308.75;4495936;32;33847;-85
2021/04/14 06:39:28;;;;;;;;;;;;;;;12.15;43.73;100315.63;4483285;32;33408;-85
2021/04/14 06:42:13;;;;;;;;;;;;;;;11.96;44.62;100315.31;4471281;31;33648;-83
2021/04/14 06:45:04;;;;;;;;;;;;;;;11.75;45.72;100317.53;4470428;32;33113;-85
2021/04/14 06:47:38;;;;;;;;;;;;;;;11.98;45.11;100316.97;4495380;32;33373;-84
2021/04/14 06:50:38;;;;;;;;;;;;;;;11.64;44.90;100322.22;4481161;31;1167393;-84
2021/04/14 06:53:05;;;;;;;;;;;;;;;11.64;44.90;100322.22;4498472;31;33016;-85
2021/04/14 06:55:35;;;;;;;;;;;;;;;12.33;43.94;100329.94;4498115;31;33158;-85
2021/04/14 06:58:04;;;;;;;;;;;;;;;12.31;43.66;100330.00;4485262;31;34761;-84
2021/04/14 07:00:35;;;;;;;;;;;;;;;12.22;43.47;100337.22;4498365;31;34486;-85
2021/04/14 07:03:19;;;;;;;;;;;;;;;12.63;43.52;100324.69;4498259;31;33337;-85
2021/04/14 07:05:57;;;;;;;;;;;;;;;11.70;45.62;100338.56;4472087;31;33185;-86
2021/04/14 07:08:27;;;;;;;;;;;;;;;12.48;43.86;100332.09;4484926;31;33876;-85
2021/04/14 07:10:55;;;;;;;;;;;;;;;12.25;44.82;100342.37;4485145;31;35228;-86
2021/04/14 07:13:22;;;;;;;;;;;;;;;12.08;45.48;100340.22;4472278;31;32018;-85
2021/04/14 07:15:50;;;;;;;;;;;;;;;12.68;43.54;100339.38;4485166;31;33715;-85
2021/04/14 07:18:33;;;;;;;;;;;;;;;12.67;43.30;100342.88;4499803;31;34116;-85
2021/04/14 07:21:14;;;;;;;;;;;;;;;12.78;42.81;100344.31;4512474;31;32850;-85
2021/04/14 07:23:41;;;;;;;;;;;;;;;12.54;43.82;100346.75;4498151;31;33971;-85
2021/04/14 07:26:11;;;;;;;;;;;;;;;12.67;43.33;100345.50;4485311;31;32795;-85
2021/04/14 07:28:46;;;;;;;;;;;;;;;12.43;44.24;100354.91;4473060;31;34134;-85
2021/04/14 07:31:22;;;;;;;;;;;;;;;12.59;43.88;100354.44;4472185;31;33265;-86
2021/04/14 07:33:50;;;;;;;;;;;;;;;12.85;43.86;100346.66;4472327;31;31931;-85
2021/04/14 07:36:20;;;;;;;;;;;;;;;12.71;43.43;100354.09;4498296;31;33942;-85
2021/04/14 07:38:49;;;;;;;;;;;;;;;13.41;42.08;100352.81;4501382;31;33814;-85
2021/04/14 07:41:42;;;;;;;;;;;;;;;13.48;41.82;100354.31;4500317;31;33968;-86
2021/04/14 07:44:42;;;;;;;;;;;;;;;13.42;41.79;100359.75;4498126;31;34064;-87
2021/04/14 07:47:09;;;;;;;;;;;;;;;12.82;43.54;100366.84;4477744;31;34012;-85
2021/04/14 07:49:42;;;;;;;;;;;;;;;12.88;43.41;100358.81;4486028;31;34151;-85
2021/04/14 07:52:10;;;;;;;;;;;;;;;13.39;41.95;100366.84;4497875;31;34639;-86
2021/04/14 07:54:46;;;;;;;;;;;;;;;14.04;40.66;100365.53;4484802;31;33195;-86
2021/04/14 07:57:25;;;;;;;;;;;;;;;13.44;42.66;100371.03;4497972;31;34858;-86
2021/04/14 07:59:52;;;;;;;;;;;;;;;13.56;42.11;100366.28;4495538;31;34032;-85
2021/04/14 08:02:32;;;;;;;;;;;;;;;13.26;43.46;100361.12;4501299;31;33904;-85
2021/04/14 08:05:23;;;;;;;;;;;;;;;13.15;43.32;100364.09;4465351;31;32625;-85
2021/04/14 08:07:49;;;;;;;;;;;;;;;13.36;43.26;100363.44;4474117;31;34361;-86
2021/04/14 08:10:22;;;;;;;;;;;;;;;13.33;43.40;100358.25;4474264;31;34847;-86
2021/04/14 08:13:04;;;;;;;;;;;;;;;13.33;43.92;100363.47;4487450;31;34094;-86
2021/04/14 08:15:32;;;;;;;;;;;;;;;13.83;41.91;100361.91;4474015;31;32668;-87
2021/04/14 08:18:18;;;;;;;;;;;;;;;13.49;43.10;100366.47;4474160;31;34945;-85
2021/04/14 08:21:02;;;;;;;;;;;;;;;13.73;42.30;100370.97;4486744;31;34114;-85
2021/04/14 08:23:31;;;;;;;;;;;;;;;13.82;42.42;100370.66;4486765;31;33879;-86
2021/04/14 08:26:00;;;;;;;;;;;;;;;13.04;43.47;100372.25;4486811;31;33511;-86
2021/04/14 08:28:27;;;;;;;;;;;;;;;13.72;42.46;100369.25;4461125;31;32571;-86
2021/04/14 08:31:34;;;;;;;;;;;;;;;14.18;41.51;100380.75;4473765;31;33894;-86
2021/04/14 08:34:10;;;;;;;;;;;;;;;14.24;40.87;100369.19;4478547;31;33406;-87
2021/04/14 08:36:46;;;;;;;;;;;;;;;14.26;40.47;100370.84;4487481;31;33176;-87
2021/04/14 08:39:16;;;;;;;;;;;;;;;14.32;40.72;100380.28;4487326;31;34408;-86
2021/04/14 08:41:43;;;;;;;;;;;;;;;14.42;40.59;100383.41;4474971;31;34816;-86
2021/04/14 08:44:11;;;;;;;;;;;;;;;14.12;41.13;100383.56;4488516;31;34058;-86
2021/04/14 08:46:39;;;;;;;;;;;;;;;14.08;40.90;100385.47;4490523;31;32817;-86
2021/04/14 08:49:18;;;;;;;;;;;;;;;14.79;39.77;100382.91;4482332;31;32694;-86
2021/04/14 08:51:45;;;;;;;;;;;;;;;14.22;40.90;100379.72;4476653;31;34291;-86
2021/04/14 08:54:14;;;;;;;;;;;;;;;14.20;41.08;100374.53;4460669;31;33209;-86
2021/04/14 08:56:41;;;;;;;;;;;;;;;13.87;41.92;100373.97;4473609;31;33776;-86
2021/04/14 08:59:10;;;;;;;;;;;;;;;14.38;40.72;100374.78;4486983;31;32974;-87
2021/04/14 09:01:37;;;;;;;;;;;;;;;13.82;42.19;100374.12;4487087;31;34782;-86
2021/04/14 09:04:06;;;;;;;;;;;;;;;14.16;41.48;100366.84;4474116;31;34475;-87
2021/04/14 09:06:33;;;;;;;;;;;;;;;14.41;40.09;100369.41;4487267;31;32970;-88
2021/04/14 09:09:01;;;;;;;;;;;;;;;14.41;39.98;100371.19;4460646;31;32879;-85
2021/04/14 09:11:30;;;;;;;;;;;;;;;14.55;39.74;100368.91;4473083;31;33175;-87
2021/04/14 09:14:04;;;;;;;;;;;;;;;14.61;40.12;100373.94;4460395;31;32768;-87
2021/04/14 09:16:35;;;;;;;;;;;;;;;14.65;39.40;100372.06;4474209;31;32263;-87
2021/04/14 09:19:24;;;;;;;;;;;;;;;14.87;39.16;100366.88;4473498;31;33244;-87
2021/04/14 09:21:57;;;;;;;;;;;;;;;14.76;38.68;100366.41;4474106;31;35093;-86
2021/04/14 09:24:42;;;;;;;;;;;;;;;14.77;39.28;100371.63;4486954;31;33644;-87
2021/04/14 09:27:28;;;;;;;;;;;;;;;14.73;39.86;100377.03;4487194;31;33732;-87
2021/04/14 09:30:10;;;;;;;;;;;;;;;14.51;39.59;100372.56;4501204;31;33945;-87
2021/04/14 09:32:37;;;;;;;;;;;;;;;14.70;39.06;100375.38;4501376;31;34141;-87
2021/04/14 09:35:16;;;;;;;;;;;;;;;14.99;38.64;100366.37;4487535;31;34422;-86
2021/04/14 09:37:47;;;;;;;;;;;;;;;14.88;39.25;100368.59;4461649;31;32084;-86
2021/04/14 09:40:26;;;;;;;;;;;;;;;15.30;37.85;100374.81;4486794;31;34694;-86
2021/04/14 09:42:53;;;;;;;;;;;;;;;15.46;38.03;100361.91;4500906;31;33372;-85
2021/04/14 09:45:27;;;;;;;;;;;;;;;15.21;38.35;100365.56;4486548;31;34695;-86
2021/04/14 09:47:58;;;;;;;;;;;;;;;15.15;38.12;100371.03;4486931;31;33575;-87
2021/04/14 09:50:29;;;;;;;;;;;;;;;15.45;37.41;100363.69;4473960;31;34069;-86
2021/04/14 09:53:00;;;;;;;;;;;;;;;15.48;37.46;100367.97;4487118;31;33723;-86
2021/04/14 09:55:45;;;;;;;;;;;;;;;15.63;37.42;100364.69;4466362;31;32938;-85
2021/04/14 09:58:24;;;;;;;;;;;;;;;15.61;37.34;100353.41;4469501;31;33402;-85
2021/04/14 10:01:14;;;;;;;;;;;;;;;15.01;38.55;100356.69;4486184;31;35375;-84
2021/04/14 10:03:45;;;;;;;;;;;;;;;15.51;37.25;100352.06;4494222;31;34617;-83
2021/04/14 10:06:17;;;;;;;;;;;;;;;15.82;36.50;100356.94;4494355;31;34796;-84
2021/04/14 10:08:45;;;;;;;;;;;;;;;15.56;36.68;100354.53;4480505;31;34513;-85
2021/04/14 10:11:27;;;;;;;;;;;;;;;15.52;37.62;100348.53;4475877;31;33460;-85
2021/04/14 10:13:55;;;;;;;;;;;;;;;15.23;37.82;100352.34;4486605;31;33997;-85
2021/04/14 10:16:22;;;;;;;;;;;;;;;15.78;36.28;100349.19;4486688;31;33877;-85
2021/04/14 10:18:50;;;;;;;;;;;;;;;16.16;35.93;100344.91;4486808;31;33205;-85
2021/04/14 10:21:24;;;;;;;;;;;;;;;15.88;36.63;100347.91;4474042;31;32537;-85
2021/04/14 10:23:55;;;;;;;;;;;;;;;15.68;37.60;100344.31;4473094;31;33653;-86
2021/04/14 10:26:22;;;;;;;;;;;;;;;15.53;37.18;100345.84;4500370;31;33418;-86
2021/04/14 10:28:49;;;;;;;;;;;;;;;15.58;37.96;100344.78;4485907;31;33144;-85
2021/04/14 10:31:22;;;;;;;;;;;;;;;15.80;37.15;100347.38;4473217;31;33799;-86
2021/04/14 10:33:51;;;;;;;;;;;;;;;15.98;36.86;100343.97;4486303;31;34694;-86
2021/04/14 10:36:22;;;;;;;;;;;;;;;16.07;36.92;100339.22;4460635;31;32410;-84
2021/04/14 10:38:53;;;;;;;;;;;;;;;16.46;35.75;100340.97;4461549;31;32387;-85
2021/04/14 10:41:22;;;;;;;;;;;;;;;15.96;36.70;100345.81;4462392;31;32411;-85
2021/04/14 10:43:49;;;;;;;;;;;;;;;16.21;36.07;100336.84;4486351;31;34191;-85
2021/04/14 10:46:21;;;;;;;;;;;;;;;16.06;36.11;100334.88;4474120;31;33772;-86
2021/04/14 10:48:48;;;;;;;;;;;;;;;16.56;36.00;100334.38;4486431;31;33170;-86
2021/04/14 10:51:21;;;;;;;;;;;;;;;16.34;35.50;100331.84;4472946;31;32990;-84
2021/04/14 10:53:53;;;;;;;;;;;;;;;16.17;35.55;100328.22;4474234;31;34284;-84
2021/04/14 10:56:20;;;;;;;;;;;;;;;16.54;35.11;100330.97;4473197;31;32980;-84
2021/04/14 10:58:48;;;;;;;;;;;;;;;16.50;34.68;100332.03;4500202;31;33786;-84
2021/04/14 11:01:17;;;;;;;;;;;;;;;16.43;35.05;100327.97;4486158;31;34630;-84
2021/04/14 11:04:07;;;;;;;;;;;;;;;16.63;34.84;100322.66;4485706;31;33209;-87
2021/04/14 11:06:35;;;;;;;;;;;;;;;16.39;35.79;100331.66;4467095;31;34133;-85
2021/04/14 11:09:02;;;;;;;;;;;;;;;16.44;35.73;100327.06;4459950;31;31584;-86
2021/04/14 11:11:29;;;;;;;;;;;;;;;16.49;34.71;100319.81;4472788;31;34041;-86
2021/04/14 11:13:57;;;;;;;;;;;;;;;16.75;34.12;100320.34;4485723;31;33736;-87
2021/04/14 11:16:24;;;;;;;;;;;;;;;16.81;34.28;100314.81;4485796;31;33831;-86
2021/04/14 11:18:51;;;;;;;;;;;;;;;16.70;34.01;100313.53;4473090;31;32836;-84
2021/04/14 11:21:23;;;;;;;;;;;;;;;16.99;33.62;100319.22;4475432;31;32964;-84
2021/04/14 11:24:00;;;;;;;;;;;;;;;17.07;33.11;100317.97;4475842;31;33442;-83
2021/04/14 11:26:27;;;;;;;;;;;;;;;16.43;33.51;100315.66;4475074;31;33759;-84
2021/04/14 11:28:55;;;;;;;;;;;;;;;16.84;32.74;100314.66;4472964;31;33115;-86
2021/04/14 11:31:38;;;;;;;;;;;;;;;16.79;32.91;100316.66;4472880;31;34411;-86
2021/04/14 11:34:13;;;;;;;;;;;;;;;17.06;32.45;100311.87;4459854;31;33976;-85
2021/04/14 11:46:36;;;;;;;;;;;;;;;17.26;31.90;100318.78;4474563;27;20314;-89
2021/04/14 11:49:05;;;;;;;;;;;;;;;16.85;31.31;100325.09;4408328;32;32848;-89
2021/04/14 11:51:38;;;;;;;;;;;;;;;16.39;31.83;100316.72;4411936;32;32175;-89
2021/04/14 11:54:06;;;;;;;;;;;;;;;16.22;31.33;100322.78;4411982;32;34041;-89
2021/04/14 11:56:35;;;;;;;;;;;;;;;16.73;31.13;100322.22;4412166;32;34124;-89
2021/04/14 11:59:03;;;;;;;;;;;;;;;16.74;31.13;100316.88;4412142;32;32970;-88
2021/04/14 12:01:31;;;;;;;;;;;;;;;16.75;30.56;100320.34;4424613;32;33251;-89
2021/04/14 12:04:11;;;;;;;;;;;;;;;15.85;31.16;100327.88;4437207;32;34008;-89
2021/04/14 12:06:38;;;;;;;;;;;;;;;15.72;31.67;100313.53;4424810;32;34182;-88
2021/04/14 12:09:06;;;;;;;;;;;;;;;16.80;30.14;100315.72;4437347;32;32840;-89
2021/04/14 12:11:33;;;;;;;;;;;;;;;16.92;29.70;100322.22;4413012;32;32859;-89
2021/04/14 12:13:59;;;;;;;;;;;;;;;16.17;30.17;100319.50;4424327;32;34185;-90
2021/04/14 12:16:27;;;;;;;;;;;;;;;16.43;29.85;100317.44;4424812;32;34534;-89
2021/04/14 12:18:54;;;;;;;;;;;;;;;16.53;30.05;100316.09;4425929;32;33482;-90
2021/04/14 12:21:21;;;;;;;;;;;;;;;15.68;30.17;100320.69;4411733;32;32161;-90
2021/04/14 12:23:55;;;;;;;;;;;;;;;16.39;29.28;100318.50;4413533;32;33228;-90
2021/04/14 12:26:27;;;;;;;;;;;;;;;16.87;28.55;100310.09;4412927;32;33068;-90
2021/04/14 12:28:55;;;;;;;;;;;;;;;16.51;29.33;100307.41;4411865;32;33790;-89
2021/04/14 12:31:31;;;;;;;;;;;;;;;16.33;29.33;100315.25;4425636;32;33526;-88
2021/04/14 12:34:00;;;;;;;;;;;;;;;17.31;28.11;100303.62;4424832;32;33528;-91
2021/04/14 12:36:28;;;;;;;;;;;;;;;16.04;29.96;100308.69;4411638;32;33433;-90
2021/04/14 12:38:55;;;;;;;;;;;;;;;15.77;29.02;100310.69;4411869;32;32808;-89
2021/04/14 12:41:23;;;;;;;;;;;;;;;16.39;28.03;100311.47;4424134;32;32764;-90
2021/04/14 12:43:51;;;;;;;;;;;;;;;14.15;31.52;100320.59;4411419;32;33178;-90
2021/04/14 12:46:19;;;;;;;;;;;;;;;15.23;29.83;100315.63;4424890;32;33424;-88
2021/04/14 12:48:47;;;;;;;;;;;;;;;15.89;28.59;100315.47;4427285;32;33780;-87
2021/04/14 12:51:24;;;;;;;;;;;;;;;14.57;30.67;100311.19;4415665;32;32061;-87
2021/04/14 12:54:15;;;;;;;;;;;;;;;14.74;30.25;100318.44;4428892;32;33568;-88
2021/04/14 12:56:58;;;;;;;;;;;;;;;15.61;27.95;100311.37;4441722;32;34141;-90
2021/04/14 12:59:31;;;;;;;;;;;;;;;15.60;28.51;100312.28;4441765;32;34078;-89
2021/04/14 13:02:03;;;;;;;;;;;;;;;15.56;29.05;100317.75;4411953;32;32026;-89
2021/04/14 13:04:34;;;;;;;;;;;;;;;16.40;28.12;100315.81;4411271;32;32924;-88
2021/04/14 13:07:04;;;;;;;;;;;;;;;16.69;27.55;100314.44;4423765;32;33064;-87
2021/04/14 13:09:33;;;;;;;;;;;;;;;16.25;28.21;100314.75;4411055;32;33202;-90
2021/04/14 13:12:02;;;;;;;;;;;;;;;16.57;27.43;100307.16;4410972;32;32081;-89
2021/04/14 13:14:30;;;;;;;;;;;;;;;15.33;28.85;100317.78;4411186;32;32944;-88
2021/04/14 13:17:01;;;;;;;;;;;;;;;15.89;28.04;100317.22;4425847;32;34853;-90
2021/04/14 13:19:38;;;;;;;;;;;;;;;16.25;27.51;100306.84;4438654;32;33198;-88
2021/04/14 13:22:06;;;;;;;;;;;;;;;15.61;28.18;100315.75;4438631;32;32216;-88
2021/04/14 13:24:33;;;;;;;;;;;;;;;16.23;26.97;100313.09;4413563;32;34621;-89
2021/04/14 13:27:03;;;;;;;;;;;;;;;15.91;27.21;100320.66;4439105;32;34333;-88
2021/04/14 13:29:32;;;;;;;;;;;;;;;15.95;27.12;100323.06;4438449;32;34532;-89
2021/04/14 13:32:04;;;;;;;;;;;;;;;16.05;26.38;100309.50;4413882;32;32164;-88
2021/04/14 13:34:42;;;;;;;;;;;;;;;15.86;27.19;100310.31;4426232;32;33476;-88
2021/04/14 13:37:30;;;;;;;;;;;;;;;16.04;26.76;100303.41;4417512;32;33142;-88
2021/04/14 13:40:04;;;;;;;;;;;;;;;16.89;26.36;100296.88;4413983;32;32894;-92
2021/04/14 13:42:52;;;;;;;;;;;;;;;16.45;27.51;100310.34;4426991;32;32140;-88
2021/04/14 13:45:26;;;;;;;;;;;;;;;17.09;25.59;100306.44;4438422;32;34797;-89
2021/04/14 13:48:04;;;;;;;;;;;;;;;16.81;25.82;100317.44;4413241;32;33564;-89
2021/04/14 13:50:47;;;;;;;;;;;;;;;16.36;25.89;100303.72;4413366;32;32872;-91
2021/04/14 13:53:14;;;;;;;;;;;;;;;17.35;25.04;100310.44;4412936;32;33869;-92
2021/04/14 13:55:41;;;;;;;;;;;;;;;16.56;25.17;100305.44;4428238;32;34210;-93
2021/04/14 13:58:09;;;;;;;;;;;;;;;16.05;25.63;100297.25;4427218;32;33702;-94
2021/04/14 14:00:43;;;;;;;;;;;;;;;16.70;25.69;100300.38;4427908;32;33320;-94
2021/04/14 14:03:12;;;;;;;;;;;;;;;16.78;24.96;100294.75;4416526;32;32459;-89
2021/04/14 14:05:41;;;;;;;;;;;;;;;17.60;24.15;100303.91;4428633;32;33960;-95
2021/04/14 14:08:11;;;;;;;;;;;;;;;18.20;23.36;100307.84;4415267;32;34590;-94
2021/04/14 14:50:42;;;;;;;;;;;;;;;16.91;22.70;100316.13;2956685;30;20016;-89
2021/04/14 14:53:14;;;;;;;;;;;;;;;16.56;22.99;100321.22;4382777;32;33539;-91
2021/04/14 14:55:51;;;;;;;;;;;;;;;16.86;23.04;100316.28;4385544;32;32769;-95
2021/04/14 14:58:21;;;;;;;;;;;;;;;17.01;23.94;100322.63;4393793;32;33589;-91
2021/04/14 15:01:02;;;;;;;;;;;;;;;17.59;23.52;100325.94;4378811;32;32847;-91
2021/04/14 15:03:29;;;;;;;;;;;;;;;16.93;24.32;100310.75;4366727;32;33417;-91
2021/04/14 15:05:57;;;;;;;;;;;;;;;17.70;23.29;100317.47;4379269;32;33776;-92
2021/04/14 15:08:25;;;;;;;;;;;;;;;17.53;23.17;100323.59;4378948;32;33380;-90
2021/04/14 15:10:55;;;;;;;;;;;;;;;17.68;22.88;100324.59;4378608;32;32716;-92
2021/04/14 15:13:23;;;;;;;;;;;;;;;17.50;23.17;100329.88;4384895;32;33960;-92
2021/04/14 15:15:55;;;;;;;;;;;;;;;17.95;22.96;100330.25;4359954;32;32619;-92
2021/04/14 15:18:30;;;;;;;;;;;;;;;17.74;22.83;100332.19;4383580;32;33119;-92
2021/04/14 15:20:58;;;;;;;;;;;;;;;17.96;22.48;100328.47;4359715;32;31941;-92
2021/04/14 15:23:28;;;;;;;;;;;;;;;18.13;21.91;100336.34;4367680;32;32828;-92
2021/04/14 15:26:02;;;;;;;;;;;;;;;17.49;22.73;100338.69;4372069;32;33187;-92